sensor_id;sensor_type;location;lat;lon;timestamp;pressure;altitude;pressure_sealevel;temperature;humidity
35888;BME280;21990;42.540;23.496;2023-02-04T00:01:54;93246.97;;;1.34;80.44
35888;BME280;21990;42.540;23.496;2023-02-04T00:04:20;93232.31;;;1.34;80.18
35888;BME280;21990;42.540;23.496;2023-02-04T00:06:46;93243.72;;;1.36;80.36
35888;BME280;21990;42.540;23.496;2023-02-04T00:09:11;93228.22;;;1.29;79.16
35888;BME280;21990;42.540;23.496;2023-02-04T00:11:37;93222.41;;;1.13;79.51
35888;BME280;21990;42.540;23.496;2023-02-04T00:14:02;93206.44;;;1.08;79.88
35888;BME280;21990;42.540;23.496;2023-02-04T00:16:28;93211.81;;;0.97;80.44
35888;BME280;21990;42.540;23.496;2023-02-04T00:18:53;93192.59;;;0.93;81.16
35888;BME280;21990;42.540;23.496;2023-02-04T00:21:19;93204.34;;;1.03;80.54
35888;BME280;21990;42.540;23.496;2023-02-04T00:23:44;93206.25;;;1.11;80.63
35888;BME280;21990;42.540;23.496;2023-02-04T00:26:09;93200.84;;;1.22;80.30
35888;BME280;21990;42.540;23.496;2023-02-04T00:28:36;93198.94;;;1.28;79.69
35888;BME280;21990;42.540;23.496;2023-02-04T00:31:02;93177.69;;;1.25;80.59
35888;BME280;21990;42.540;23.496;2023-02-04T00:33:27;93179.84;;;1.16;79.32
35888;BME280;21990;42.540;23.496;2023-02-04T00:35:53;93182.41;;;1.19;79.07
35888;BME280;21990;42.540;23.496;2023-02-04T00:38:19;93184.31;;;1.13;79.51
35888;BME280;21990;42.540;23.496;2023-02-04T00:40:44;93185.94;;;1.20;80.16
35888;BME280;21990;42.540;23.496;2023-02-04T00:43:10;93187.53;;;1.26;79.78
35888;BME280;21990;42.540;23.496;2023-02-04T00:45:35;93185.81;;;1.29;79.73
35888;BME280;21990;42.540;23.496;2023-02-04T00:48:01;93191.44;;;1.34;79.70
35888;BME280;21990;42.540;23.496;2023-02-04T00:50:26;93183.34;;;1.31;79.38
35888;BME280;21990;42.540;23.496;2023-02-04T00:52:52;93184.94;;;1.37;79.15
35888;BME280;21990;42.540;23.496;2023-02-04T00:55:17;93187.13;;;1.33;79.47
35888;BME280;21990;42.540;23.496;2023-02-04T00:57:44;93179.38;;;1.37;80.60
35888;BME280;21990;42.540;23.496;2023-02-04T01:00:14;93179.19;;;1.41;80.45
35888;BME280;21990;42.540;23.496;2023-02-04T01:02:40;93184.81;;;1.47;79.13
35888;BME280;21990;42.540;23.496;2023-02-04T01:05:07;93176.13;;;1.39;78.94
35888;BME280;21990;42.540;23.496;2023-02-04T01:07:33;93168.06;;;1.41;80.45
35888;BME280;21990;42.540;23.496;2023-02-04T01:09:58;93174.69;;;1.43;80.35
35888;BME280;21990;42.540;23.496;2023-02-04T01:12:24;93169.16;;;1.29;80.46
35888;BME280;21990;42.540;23.496;2023-02-04T01:14:52;93174.03;;;1.34;79.93
35888;BME280;21990;42.540;23.496;2023-02-04T01:17:18;93155.63;;;1.36;79.79
35888;BME280;21990;42.540;23.496;2023-02-04T01:19:44;93161.41;;;1.33;79.78
35888;BME280;21990;42.540;23.496;2023-02-04T01:22:10;93160.44;;;1.36;79.54
35888;BME280;21990;42.540;23.496;2023-02-04T01:24:36;93157.16;;;1.37;79.57
35888;BME280;21990;42.540;23.496;2023-02-04T01:27:02;93142.81;;;1.39;79.17
35888;BME280;21990;42.540;23.496;2023-02-04T01:29:27;93152.50;;;1.29;79.24
35888;BME280;21990;42.540;23.496;2023-02-04T01:31:53;93154.41;;;1.37;79.68
35888;BME280;21990;42.540;23.496;2023-02-04T01:34:18;93143.97;;;1.32;79.40
35888;BME280;21990;42.540;23.496;2023-02-04T01:36:44;93147.59;;;1.38;78.90
35888;BME280;21990;42.540;23.496;2023-02-04T01:39:09;93140.09;;;1.24;79.24
35888;BME280;21990;42.540;23.496;2023-02-04T01:41:35;93144.38;;;1.25;79.52
35888;BME280;21990;42.540;23.496;2023-02-04T01:44:00;93140.16;;;1.30;79.78
35888;BME280;21990;42.540;23.496;2023-02-04T01:46:26;93131.47;;;1.22;79.69
35888;BME280;21990;42.540;23.496;2023-02-04T01:48:52;93111.59;;;1.09;79.76
35888;BME280;21990;42.540;23.496;2023-02-04T01:51:23;93115.72;;;1.14;81.05
35888;BME280;21990;42.540;23.496;2023-02-04T01:53:51;93117.72;;;1.13;80.70
35888;BME280;21990;42.540;23.496;2023-02-04T01:56:19;93099.63;;;1.18;81.27
35888;BME280;21990;42.540;23.496;2023-02-04T01:58:46;93103.13;;;1.13;80.62
35888;BME280;21990;42.540;23.496;2023-02-04T02:01:14;93099.00;;;1.08;80.62
35888;BME280;21990;42.540;23.496;2023-02-04T02:03:40;93102.25;;;1.07;81.15
35888;BME280;21990;42.540;23.496;2023-02-04T02:06:07;93100.59;;;1.15;82.29
35888;BME280;21990;42.540;23.496;2023-02-04T02:08:37;93094.03;;;1.12;81.61
35888;BME280;21990;42.540;23.496;2023-02-04T02:11:03;93086.53;;;1.18;81.55
35888;BME280;21990;42.540;23.496;2023-02-04T02:13:29;93079.72;;;1.19;81.74
35888;BME280;21990;42.540;23.496;2023-02-04T02:15:54;93087.44;;;1.30;81.46
35888;BME280;21990;42.540;23.496;2023-02-04T02:18:20;93098.75;;;1.26;81.90
35888;BME280;21990;42.540;23.496;2023-02-04T02:20:46;93095.28;;;1.31;81.86
35888;BME280;21990;42.540;23.496;2023-02-04T02:23:47;93075.16;;;1.36;81.36
35888;BME280;21990;42.540;23.496;2023-02-04T02:26:15;93070.44;;;1.22;81.59
35888;BME280;21990;42.540;23.496;2023-02-04T02:28:41;93077.19;;;1.36;81.06
35888;BME280;21990;42.540;23.496;2023-02-04T02:31:07;93064.03;;;1.36;80.89
35888;BME280;21990;42.540;23.496;2023-02-04T02:33:33;93065.91;;;1.25;81.91
35888;BME280;21990;42.540;23.496;2023-02-04T02:35:59;93044.00;;;1.27;81.66
35888;BME280;21990;42.540;23.496;2023-02-04T02:38:25;93056.56;;;1.42;81.23
35888;BME280;21990;42.540;23.496;2023-02-04T02:40:51;93043.50;;;1.49;81.56
35888;BME280;21990;42.540;23.496;2023-02-04T02:43:20;93043.50;;;1.49;81.25
35888;BME280;21990;42.540;23.496;2023-02-04T02:45:47;93020.81;;;1.50;80.70
35888;BME280;21990;42.540;23.496;2023-02-04T02:48:12;93022.56;;;1.48;80.59
35888;BME280;21990;42.540;23.496;2023-02-04T02:50:38;93009.91;;;1.47;80.25
35888;BME280;21990;42.540;23.496;2023-02-04T02:53:09;93013.28;;;1.10;81.29
35888;BME280;21990;42.540;23.496;2023-02-04T02:55:36;93009.81;;;1.15;81.57
35888;BME280;21990;42.540;23.496;2023-02-04T02:58:01;93004.06;;;1.19;81.43
35888;BME280;21990;42.540;23.496;2023-02-04T03:00:28;93006.47;;;1.11;81.57
35888;BME280;21990;42.540;23.496;2023-02-04T03:03:07;92993.84;;;1.10;81.38
35888;BME280;21990;42.540;23.496;2023-02-04T03:05:38;92991.84;;;1.11;81.41
35888;BME280;21990;42.540;23.496;2023-02-04T03:08:06;93001.13;;;1.08;80.88
35888;BME280;21990;42.540;23.496;2023-02-04T03:10:31;92994.13;;;0.92;82.00
35888;BME280;21990;42.540;23.496;2023-02-04T03:12:58;93007.31;;;0.97;81.61
35888;BME280;21990;42.540;23.496;2023-02-04T03:15:24;92994.75;;;0.81;81.87
35888;BME280;21990;42.540;23.496;2023-02-04T03:17:49;93004.31;;;0.80;82.39
35888;BME280;21990;42.540;23.496;2023-02-04T03:20:22;92998.34;;;0.67;82.98
35888;BME280;21990;42.540;23.496;2023-02-04T03:22:48;93008.81;;;0.78;82.87
35888;BME280;21990;42.540;23.496;2023-02-04T03:25:13;93016.59;;;0.74;83.63
35888;BME280;21990;42.540;23.496;2023-02-04T03:27:39;93019.22;;;0.83;84.15
35888;BME280;21990;42.540;23.496;2023-02-04T03:30:05;93013.06;;;0.73;83.89
35888;BME280;21990;42.540;23.496;2023-02-04T03:32:31;93008.34;;;0.79;84.66
35888;BME280;21990;42.540;23.496;2023-02-04T03:34:57;93010.97;;;0.88;84.41
35888;BME280;21990;42.540;23.496;2023-02-04T03:37:23;92999.59;;;0.86;84.51
35888;BME280;21990;42.540;23.496;2023-02-04T03:39:48;92998.16;;;0.91;84.66
35888;BME280;21990;42.540;23.496;2023-02-04T03:42:14;92996.78;;;1.01;84.32
35888;BME280;21990;42.540;23.496;2023-02-04T03:44:39;92976.94;;;0.88;83.74
35888;BME280;21990;42.540;23.496;2023-02-04T03:47:05;92977.97;;;0.90;84.02
35888;BME280;21990;42.540;23.496;2023-02-04T03:49:30;92986.78;;;0.89;84.48
35888;BME280;21990;42.540;23.496;2023-02-04T03:51:56;92981.50;;;0.91;84.36
35888;BME280;21990;42.540;23.496;2023-02-04T03:54:22;92989.69;;;1.00;84.68
35888;BME280;21990;42.540;23.496;2023-02-04T03:56:47;92990.25;;;1.04;84.58
35888;BME280;21990;42.540;23.496;2023-02-04T03:59:13;92984.97;;;1.06;84.67
35888;BME280;21990;42.540;23.496;2023-02-04T04:01:38;92975.31;;;1.02;83.94
35888;BME280;21990;42.540;23.496;2023-02-04T04:04:04;92973.28;;;0.97;83.78
35888;BME280;21990;42.540;23.496;2023-02-04T04:06:29;92964.19;;;0.96;84.08
35888;BME280;21990;42.540;23.496;2023-02-04T04:08:56;92954.28;;;0.89;84.58
35888;BME280;21990;42.540;23.496;2023-02-04T04:11:21;92945.59;;;1.02;84.73
35888;BME280;21990;42.540;23.496;2023-02-04T04:13:47;92943.44;;;1.12;84.92
35888;BME280;21990;42.540;23.496;2023-02-04T04:16:12;92944.69;;;1.11;84.36
35888;BME280;21990;42.540;23.496;2023-02-04T04:18:38;92934.13;;;1.15;84.08
35888;BME280;21990;42.540;23.496;2023-02-04T04:21:03;92935.38;;;0.93;84.12
35888;BME280;21990;42.540;23.496;2023-02-04T04:23:29;92930.22;;;1.01;85.34
35888;BME280;21990;42.540;23.496;2023-02-04T04:25:54;92941.31;;;1.01;84.70
35888;BME280;21990;42.540;23.496;2023-02-04T04:28:20;92936.03;;;1.03;84.52
35888;BME280;21990;42.540;23.496;2023-02-04T04:30:45;92935.03;;;1.06;84.55
35888;BME280;21990;42.540;23.496;2023-02-04T04:33:11;92932.00;;;1.04;85.39
35888;BME280;21990;42.540;23.496;2023-02-04T04:35:37;92932.78;;;1.05;84.54
35888;BME280;21990;42.540;23.496;2023-02-04T04:38:02;92930.81;;;0.90;85.41
35888;BME280;21990;42.540;23.496;2023-02-04T04:40:28;92946.78;;;0.95;85.46
35888;BME280;21990;42.540;23.496;2023-02-04T04:42:54;92939.81;;;1.06;84.78
35888;BME280;21990;42.540;23.496;2023-02-04T04:45:20;92943.09;;;1.04;84.97
35888;BME280;21990;42.540;23.496;2023-02-04T04:47:46;92938.78;;;1.03;85.22
35888;BME280;21990;42.540;23.496;2023-02-04T04:50:11;92944.41;;;1.09;84.83
35888;BME280;21990;42.540;23.496;2023-02-04T04:52:37;92936.50;;;1.02;85.63
35888;BME280;21990;42.540;23.496;2023-02-04T04:55:03;92953.78;;;0.91;85.99
35888;BME280;21990;42.540;23.496;2023-02-04T04:57:30;92945.66;;;0.87;85.77
35888;BME280;21990;42.540;23.496;2023-02-04T04:59:55;92948.34;;;1.02;85.23
35888;BME280;21990;42.540;23.496;2023-02-04T05:02:21;92939.59;;;1.09;85.32
35888;BME280;21990;42.540;23.496;2023-02-04T05:04:46;92951.53;;;1.15;85.22
35888;BME280;21990;42.540;23.496;2023-02-04T05:07:12;92949.88;;;1.23;85.25
35888;BME280;21990;42.540;23.496;2023-02-04T05:09:37;92949.44;;;1.30;84.94
35888;BME280;21990;42.540;23.496;2023-02-04T05:12:03;92960.31;;;1.34;84.91
35888;BME280;21990;42.540;23.496;2023-02-04T05:14:29;92951.19;;;1.28;85.09
35888;BME280;21990;42.540;23.496;2023-02-04T05:16:54;92949.38;;;1.25;85.45
35888;BME280;21990;42.540;23.496;2023-02-04T05:19:20;92963.31;;;1.30;86.37
35888;BME280;21990;42.540;23.496;2023-02-04T05:21:45;92972.53;;;1.22;86.15
35888;BME280;21990;42.540;23.496;2023-02-04T05:24:11;92968.59;;;1.28;86.30
35888;BME280;21990;42.540;23.496;2023-02-04T05:26:36;92966.00;;;1.25;86.31
35888;BME280;21990;42.540;23.496;2023-02-04T05:29:02;92981.50;;;1.31;87.76
35888;BME280;21990;42.540;23.496;2023-02-04T05:31:27;92972.75;;;1.38;87.49
35888;BME280;21990;42.540;23.496;2023-02-04T05:33:53;92982.84;;;1.41;86.91
35888;BME280;21990;42.540;23.496;2023-02-04T05:36:19;92978.06;;;1.42;87.25
35888;BME280;21990;42.540;23.496;2023-02-04T05:38:45;92983.41;;;1.46;87.13
35888;BME280;21990;42.540;23.496;2023-02-04T05:41:11;92986.03;;;1.55;86.55
35888;BME280;21990;42.540;23.496;2023-02-04T05:43:37;92996.22;;;1.63;86.02
35888;BME280;21990;42.540;23.496;2023-02-04T05:46:02;92995.50;;;1.68;85.81
35888;BME280;21990;42.540;23.496;2023-02-04T05:48:28;93008.41;;;1.71;85.74
35888;BME280;21990;42.540;23.496;2023-02-04T05:50:54;93005.16;;;1.73;85.45
35888;BME280;21990;42.540;23.496;2023-02-04T05:53:19;93011.53;;;1.79;85.20
35888;BME280;21990;42.540;23.496;2023-02-04T05:55:45;93021.66;;;1.82;85.07
35888;BME280;21990;42.540;23.496;2023-02-04T05:58:10;93029.56;;;1.89;85.49
35888;BME280;21990;42.540;23.496;2023-02-04T06:00:36;93020.75;;;1.90;85.69
35888;BME280;21990;42.540;23.496;2023-02-04T06:03:01;93029.78;;;1.85;87.38
35888;BME280;21990;42.540;23.496;2023-02-04T06:05:27;93030.97;;;1.79;88.33
35888;BME280;21990;42.540;23.496;2023-02-04T06:07:52;93036.25;;;1.77;89.35
35888;BME280;21990;42.540;23.496;2023-02-04T06:10:18;93035.59;;;1.62;90.15
35888;BME280;21990;42.540;23.496;2023-02-04T06:12:46;93039.03;;;1.57;91.52
35888;BME280;21990;42.540;23.496;2023-02-04T06:15:11;93027.13;;;1.51;91.08
35888;BME280;21990;42.540;23.496;2023-02-04T06:17:37;93024.41;;;1.56;90.36
35888;BME280;21990;42.540;23.496;2023-02-04T06:20:04;93003.50;;;1.61;89.76
35888;BME280;21990;42.540;23.496;2023-02-04T06:22:29;93006.34;;;1.66;88.75
35888;BME280;21990;42.540;23.496;2023-02-04T06:24:55;93004.88;;;1.71;87.54
35888;BME280;21990;42.540;23.496;2023-02-04T06:27:20;93004.22;;;1.81;83.86
35888;BME280;21990;42.540;23.496;2023-02-04T06:29:52;92996.59;;;2.33;83.25
35888;BME280;21990;42.540;23.496;2023-02-04T06:32:18;92994.06;;;2.72;78.03
35888;BME280;21990;42.540;23.496;2023-02-04T06:34:44;93014.59;;;2.80;77.32
35888;BME280;21990;42.540;23.496;2023-02-04T06:37:10;93018.91;;;2.81;76.60
35888;BME280;21990;42.540;23.496;2023-02-04T06:39:37;93020.16;;;2.80;75.87
35888;BME280;21990;42.540;23.496;2023-02-04T06:42:03;93021.69;;;2.81;75.06
35888;BME280;21990;42.540;23.496;2023-02-04T06:44:28;93022.88;;;2.69;73.90
35888;BME280;21990;42.540;23.496;2023-02-04T06:46:54;93022.41;;;2.71;74.54
35888;BME280;21990;42.540;23.496;2023-02-04T06:49:20;93015.06;;;2.68;74.65
35888;BME280;21990;42.540;23.496;2023-02-04T06:51:45;93009.50;;;2.68;74.45
35888;BME280;21990;42.540;23.496;2023-02-04T06:54:12;93007.47;;;2.68;74.41
35888;BME280;21990;42.540;23.496;2023-02-04T06:56:38;93001.16;;;2.68;73.58
35888;BME280;21990;42.540;23.496;2023-02-04T06:59:04;93007.69;;;2.65;72.38
35888;BME280;21990;42.540;23.496;2023-02-04T07:01:29;93020.09;;;2.69;72.20
35888;BME280;21990;42.540;23.496;2023-02-04T07:03:55;93017.84;;;2.73;72.04
35888;BME280;21990;42.540;23.496;2023-02-04T07:06:21;93015.38;;;2.81;72.69
35888;BME280;21990;42.540;23.496;2023-02-04T07:08:46;93010.63;;;2.87;72.62
35888;BME280;21990;42.540;23.496;2023-02-04T07:11:14;93007.09;;;2.92;71.88
35888;BME280;21990;42.540;23.496;2023-02-04T07:13:39;93001.59;;;3.03;71.32
35888;BME280;21990;42.540;23.496;2023-02-04T07:16:05;93007.50;;;3.22;72.43
35888;BME280;21990;42.540;23.496;2023-02-04T07:18:31;93007.91;;;3.57;71.45
35888;BME280;21990;42.540;23.496;2023-02-04T07:20:57;93005.69;;;3.83;69.91
35888;BME280;21990;42.540;23.496;2023-02-04T07:23:23;93007.94;;;3.74;69.16
35888;BME280;21990;42.540;23.496;2023-02-04T07:25:50;92987.41;;;3.60;70.03
35888;BME280;21990;42.540;23.496;2023-02-04T07:28:18;92985.59;;;3.46;70.40
35888;BME280;21990;42.540;23.496;2023-02-04T07:30:45;93006.09;;;3.54;71.20
35888;BME280;21990;42.540;23.496;2023-02-04T07:33:10;93002.88;;;3.78;71.45
35888;BME280;21990;42.540;23.496;2023-02-04T07:35:36;92991.03;;;4.00;70.61
35888;BME280;21990;42.540;23.496;2023-02-04T07:38:04;92982.44;;;4.03;70.02
35888;BME280;21990;42.540;23.496;2023-02-04T07:40:30;92983.94;;;4.21;68.75
35888;BME280;21990;42.540;23.496;2023-02-04T07:42:55;92984.47;;;4.36;68.83
35888;BME280;21990;42.540;23.496;2023-02-04T07:45:21;92988.28;;;4.33;67.88
35888;BME280;21990;42.540;23.496;2023-02-04T07:47:46;92987.50;;;4.32;67.75
35888;BME280;21990;42.540;23.496;2023-02-04T07:50:12;92984.22;;;4.45;68.55
35888;BME280;21990;42.540;23.496;2023-02-04T07:52:38;92995.91;;;4.55;68.17
35888;BME280;21990;42.540;23.496;2023-02-04T07:55:04;92977.63;;;4.70;69.15
35888;BME280;21990;42.540;23.496;2023-02-04T07:57:30;92977.34;;;4.85;67.89
35888;BME280;21990;42.540;23.496;2023-02-04T07:59:56;92982.63;;;4.94;66.58
35888;BME280;21990;42.540;23.496;2023-02-04T08:02:21;92968.47;;;4.75;66.71
35888;BME280;21990;42.540;23.496;2023-02-04T08:04:47;92980.41;;;4.59;66.33
35888;BME280;21990;42.540;23.496;2023-02-04T08:07:13;92974.81;;;4.59;67.60
35888;BME280;21990;42.540;23.496;2023-02-04T08:09:38;92985.22;;;4.70;67.16
35888;BME280;21990;42.540;23.496;2023-02-04T08:12:04;92972.00;;;4.76;66.07
35888;BME280;21990;42.540;23.496;2023-02-04T08:14:30;92974.81;;;4.76;66.58
35888;BME280;21990;42.540;23.496;2023-02-04T08:16:55;92981.94;;;4.60;66.39
35888;BME280;21990;42.540;23.496;2023-02-04T08:19:21;92974.56;;;4.52;66.88
35888;BME280;21990;42.540;23.496;2023-02-04T08:21:47;92980.19;;;4.35;67.17
35888;BME280;21990;42.540;23.496;2023-02-04T08:24:14;92988.28;;;4.27;67.35
35888;BME280;21990;42.540;23.496;2023-02-04T08:26:40;92973.81;;;4.18;68.04
35888;BME280;21990;42.540;23.496;2023-02-04T08:29:07;92980.16;;;4.18;68.28
35888;BME280;21990;42.540;23.496;2023-02-04T08:31:33;92983.19;;;4.15;68.77
35888;BME280;21990;42.540;23.496;2023-02-04T08:33:58;92973.06;;;4.12;68.95
35888;BME280;21990;42.540;23.496;2023-02-04T08:36:24;92975.34;;;4.08;69.75
35888;BME280;21990;42.540;23.496;2023-02-04T08:38:50;92973.06;;;4.06;70.06
35888;BME280;21990;42.540;23.496;2023-02-04T08:41:15;92967.97;;;4.05;70.31
35888;BME280;21990;42.540;23.496;2023-02-04T08:43:41;92950.25;;;4.02;69.67
35888;BME280;21990;42.540;23.496;2023-02-04T08:46:06;92969.25;;;4.09;70.11
35888;BME280;21990;42.540;23.496;2023-02-04T08:48:32;92962.91;;;4.09;70.40
35888;BME280;21990;42.540;23.496;2023-02-04T08:50:58;92967.22;;;4.10;69.22
35888;BME280;21990;42.540;23.496;2023-02-04T08:53:23;92971.53;;;4.16;70.21
35888;BME280;21990;42.540;23.496;2023-02-04T08:55:49;92975.59;;;4.26;70.44
35888;BME280;21990;42.540;23.496;2023-02-04T08:58:15;92959.38;;;4.30;68.89
35888;BME280;21990;42.540;23.496;2023-02-04T09:00:40;92963.44;;;4.41;69.92
35888;BME280;21990;42.540;23.496;2023-02-04T09:03:06;92958.84;;;4.49;69.16
35888;BME280;21990;42.540;23.496;2023-02-04T09:05:32;92965.72;;;4.53;68.24
35888;BME280;21990;42.540;23.496;2023-02-04T09:07:58;92955.53;;;4.56;67.76
35888;BME280;21990;42.540;23.496;2023-02-04T09:10:23;92962.41;;;4.60;67.57
35888;BME280;21990;42.540;23.496;2023-02-04T09:12:49;92960.38;;;4.61;67.46
35888;BME280;21990;42.540;23.496;2023-02-04T09:15:20;92963.16;;;4.55;67.41
35888;BME280;21990;42.540;23.496;2023-02-04T09:17:46;92957.09;;;4.51;68.30
35888;BME280;21990;42.540;23.496;2023-02-04T09:20:11;92958.84;;;4.49;68.43
35888;BME280;21990;42.540;23.496;2023-02-04T09:22:37;92960.38;;;4.44;68.53
35888;BME280;21990;42.540;23.496;2023-02-04T09:25:03;92949.72;;;4.48;68.61
35888;BME280;21990;42.540;23.496;2023-02-04T09:27:28;92959.38;;;4.47;68.35
35888;BME280;21990;42.540;23.496;2023-02-04T09:29:54;92945.19;;;4.51;68.45
35888;BME280;21990;42.540;23.496;2023-02-04T09:32:20;92956.34;;;4.51;68.09
35888;BME280;21990;42.540;23.496;2023-02-04T09:34:46;92947.94;;;4.62;68.25
35888;BME280;21990;42.540;23.496;2023-02-04T09:37:11;92944.13;;;4.65;68.36
35888;BME280;21990;42.540;23.496;2023-02-04T09:39:37;92946.41;;;4.66;67.80
35888;BME280;21990;42.540;23.496;2023-02-04T09:42:03;92939.81;;;4.69;68.00
35888;BME280;21990;42.540;23.496;2023-02-04T09:44:28;92940.06;;;4.60;67.20
35888;BME280;21990;42.540;23.496;2023-02-04T09:46:59;92944.88;;;4.60;67.19
35888;BME280;21990;42.540;23.496;2023-02-04T09:49:26;92938.31;;;4.52;67.33
35888;BME280;21990;42.540;23.496;2023-02-04T09:51:53;92935.28;;;4.50;67.58
35888;BME280;21990;42.540;23.496;2023-02-04T09:54:21;92926.66;;;4.48;67.15
35888;BME280;21990;42.540;23.496;2023-02-04T09:56:47;92929.19;;;4.51;68.24
35888;BME280;21990;42.540;23.496;2023-02-04T09:59:20;92931.47;;;4.42;69.19
35888;BME280;21990;42.540;23.496;2023-02-04T10:02:01;92933.53;;;4.36;68.82
35888;BME280;21990;42.540;23.496;2023-02-04T10:04:29;92931.22;;;4.34;70.52
35888;BME280;21990;42.540;23.496;2023-02-04T10:06:56;92930.22;;;4.32;71.99
35888;BME280;21990;42.540;23.496;2023-02-04T10:09:24;92927.94;;;4.36;72.14
35888;BME280;21990;42.540;23.496;2023-02-04T10:11:50;92921.09;;;4.31;72.83
35888;BME280;21990;42.540;23.496;2023-02-04T10:14:21;92906.66;;;4.27;72.70
35888;BME280;21990;42.540;23.496;2023-02-04T10:16:55;92906.16;;;4.23;73.04
35888;BME280;21990;42.540;23.496;2023-02-04T10:19:22;92901.31;;;4.29;73.70
35888;BME280;21990;42.540;23.496;2023-02-04T10:21:50;92904.09;;;4.29;72.85
35888;BME280;21990;42.540;23.496;2023-02-04T10:24:18;92904.38;;;4.31;72.64
35888;BME280;21990;42.540;23.496;2023-02-04T10:26:44;92897.28;;;4.36;72.80
35888;BME280;21990;42.540;23.496;2023-02-04T10:29:14;92897.28;;;4.36;72.08
35888;BME280;21990;42.540;23.496;2023-02-04T10:31:43;92892.19;;;4.34;71.51
35888;BME280;21990;42.540;23.496;2023-02-04T10:34:42;92892.94;;;4.40;70.44
35888;BME280;21990;42.540;23.496;2023-02-04T10:37:18;92884.06;;;4.42;70.65
35888;BME280;21990;42.540;23.496;2023-02-04T10:39:43;92893.47;;;4.39;69.51
35888;BME280;21990;42.540;23.496;2023-02-04T10:42:23;92905.63;;;4.47;70.04
35888;BME280;21990;42.540;23.496;2023-02-04T10:44:50;92896.47;;;4.41;70.53
35888;BME280;21990;42.540;23.496;2023-02-04T10:47:24;92899.28;;;4.35;70.16
35888;BME280;21990;42.540;23.496;2023-02-04T10:49:54;92883.31;;;4.36;69.24
35888;BME280;21990;42.540;23.496;2023-02-04T10:52:21;92876.47;;;4.31;69.81
35888;BME280;21990;42.540;23.496;2023-02-04T10:54:48;92882.31;;;4.33;69.73
35888;BME280;21990;42.540;23.496;2023-02-04T10:57:20;92879.50;;;4.33;70.37
35888;BME280;21990;42.540;23.496;2023-02-04T10:59:49;92877.50;;;4.17;71.38
35888;BME280;21990;42.540;23.496;2023-02-04T11:02:39;92877.75;;;4.13;72.27
35888;BME280;21990;42.540;23.496;2023-02-04T11:05:18;92885.88;;;4.06;73.17
35888;BME280;21990;42.540;23.496;2023-02-04T11:07:45;92866.13;;;3.93;74.06
35888;BME280;21990;42.540;23.496;2023-02-04T11:10:13;92872.72;;;4.01;74.90
35888;BME280;21990;42.540;23.496;2023-02-04T11:15:39;92871.94;;;4.11;74.69
35888;BME280;21990;42.540;23.496;2023-02-04T11:18:10;92862.28;;;4.18;74.29
35888;BME280;21990;42.540;23.496;2023-02-04T11:20:38;92855.44;;;4.24;73.63
35888;BME280;21990;42.540;23.496;2023-02-04T11:26:37;92855.44;;;4.30;72.89
35888;BME280;21990;42.540;23.496;2023-02-04T11:39:20;92856.16;;;4.36;71.61
35888;BME280;21990;42.540;23.496;2023-02-04T11:41:46;92847.56;;;4.40;71.01
35888;BME280;21990;42.540;23.496;2023-02-04T11:44:13;92845.78;;;4.37;70.93
35888;BME280;21990;42.540;23.496;2023-02-04T11:46:40;92853.63;;;4.44;71.05
35888;BME280;21990;42.540;23.496;2023-02-04T11:49:17;92852.13;;;4.43;70.91
35888;BME280;21990;42.540;23.496;2023-02-04T11:51:43;92843.53;;;4.29;71.49
35888;BME280;21990;42.540;23.496;2023-02-04T11:54:16;92842.25;;;4.30;71.86
35888;BME280;21990;42.540;23.496;2023-02-04T11:56:51;92838.19;;;4.20;72.44
35888;BME280;21990;42.540;23.496;2023-02-04T11:59:17;92838.19;;;4.20;72.77
35888;BME280;21990;42.540;23.496;2023-02-04T12:01:45;92840.78;;;4.07;73.56
35888;BME280;21990;42.540;23.496;2023-02-04T12:04:23;92837.72;;;4.05;74.09
35888;BME280;21990;42.540;23.496;2023-02-04T12:07:02;92833.94;;;4.03;75.60
35888;BME280;21990;42.540;23.496;2023-02-04T12:09:30;92831.13;;;3.97;75.52
35888;BME280;21990;42.540;23.496;2023-02-04T12:11:59;92827.13;;;3.93;76.25
35888;BME280;21990;42.540;23.496;2023-02-04T12:14:35;92826.31;;;3.98;76.36
35888;BME280;21990;42.540;23.496;2023-02-04T12:17:15;92830.66;;;4.04;76.51
35888;BME280;21990;42.540;23.496;2023-02-04T12:19:41;92826.81;;;4.13;76.25
35888;BME280;21990;42.540;23.496;2023-02-04T12:22:07;92822.00;;;4.13;76.19
35888;BME280;21990;42.540;23.496;2023-02-04T12:24:32;92824.56;;;4.11;76.95
35888;BME280;21990;42.540;23.496;2023-02-04T12:26:58;92829.34;;;4.05;77.57
35888;BME280;21990;42.540;23.496;2023-02-04T12:29:23;92827.34;;;4.00;78.24
35888;BME280;21990;42.540;23.496;2023-02-04T12:31:49;92833.69;;;4.01;78.73
35888;BME280;21990;42.540;23.496;2023-02-04T12:34:14;92835.97;;;3.91;79.99
35888;BME280;21990;42.540;23.496;2023-02-04T12:36:41;92822.56;;;3.84;80.38
35888;BME280;21990;42.540;23.496;2023-02-04T12:39:07;92825.84;;;3.77;81.56
35888;BME280;21990;42.540;23.496;2023-02-04T12:41:32;92827.88;;;3.76;81.46
35888;BME280;21990;42.540;23.496;2023-02-04T12:43:58;92821.03;;;3.61;82.37
35888;BME280;21990;42.540;23.496;2023-02-04T12:46:25;92823.56;;;3.59;82.17
35888;BME280;21990;42.540;23.496;2023-02-04T12:48:51;92826.34;;;3.53;82.79
35888;BME280;21990;42.540;23.496;2023-02-04T12:51:17;92826.34;;;3.53;83.06
35888;BME280;21990;42.540;23.496;2023-02-04T12:53:45;92814.94;;;3.51;81.77
35888;BME280;21990;42.540;23.496;2023-02-04T12:56:11;92827.34;;;3.39;82.30
35888;BME280;21990;42.540;23.496;2023-02-04T12:58:36;92829.88;;;3.48;81.58
35888;BME280;21990;42.540;23.496;2023-02-04T13:01:02;92830.38;;;3.47;81.13
35888;BME280;21990;42.540;23.496;2023-02-04T13:03:27;92822.03;;;3.47;80.50
35888;BME280;21990;42.540;23.496;2023-02-04T13:05:53;92819.75;;;3.45;80.53
35888;BME280;21990;42.540;23.496;2023-02-04T13:08:19;92812.19;;;3.46;80.19
35888;BME280;21990;42.540;23.496;2023-02-04T13:10:44;92814.69;;;3.44;79.43
35888;BME280;21990;42.540;23.496;2023-02-04T13:13:14;92823.31;;;3.46;79.12
35888;BME280;21990;42.540;23.496;2023-02-04T13:15:40;92829.38;;;3.55;79.73